Terminal Aerodrome Forecast
Issued by NWS Buffalo, NY

Home | Current Version | Previous Version | Text Only | Print | Product List | Glossary On
Versions: 1 2 3 4 5 6 7 8 9 10 11 12 13 14 15 16 17 18 19 20 21 22 23 24 25 26 27
000
FTUS41 KBUF 121100
TAFBUF
TAF
KBUF 121128Z 1212/1312 19004KT P6SM FEW200
     FM121500 24008KT P6SM FEW045 FEW250
     FM121800 24010G16KT P6SM SCT045 SCT250
     FM122200 24008KT P6SM SCT200
     FM130500 17007KT P6SM BKN100
     FM131100 21010KT 4SM SHRA OVC035=

USA.gov is the U.S. government's official web portal to all federal, state and local government web resources and services.